Llano, TX

2:33 PM CST on January 29, 2015 (GMT -0600)
Burnet Municipal-Craddock | Change Station
CLOSE
Current Station
Airport
Location: Burnet,
Elevation: 1286 ft
Nearby Weather Stations

Elev 1286 ft 30.74 °N, 98.24 °W | Updated 40 minutes ago

Clear
Clear
72 °F
Feels Like 72 °F
N
10
Wind Variable Wind from NNE

Today
High -- | Low -- °F
--% Chance of Precip.
Yesterday
High -- | Low -- °F
Precip. -- in
7:28 AM 6:07 PM
Waxing Gibbous, 77% visible
Pressure 30.22 in
Visibility 10.0 miles
Clouds Mostly Cloudy 9500 ft
Dew Point 41 °F
Humidity 33%
Rainfall 0.00 in
Snow Depth Not available.
UV 3 out of 12
Pollen 6.60 out of 12
Air Quality Not available.
Flu Activity Not available.
METAR KBMQ 291953Z AUTO 02009KT 10SM BKN095 22/05 A3025 RMK AO2 SLP232 T02220050 $

More Conditions Fewer Conditions

Pressure 30.22 in
Visibility 10.0 miles
Clouds Mostly Cloudy 9500 ft
Dew Point 41 °F
Humidity 33%
Rainfall 0.00 in
Snow Depth Not available.
UV 3 out of 12
Pollen 6.60 out of 12
Air Quality Not available.
Flu Activity Not available.
METAR KBMQ 291953Z AUTO 02009KT 10SM BKN095 22/05 A3025 RMK AO2 SLP232 T02220050 $

More Conditions Fewer Conditions

10-Day Weather Forecast

Almanac

Astronomy

Jan. 29, 2015 Rise Set
Actual Time
Civil Twilight
Nautical Twilight
Astronomical Twilight
Moon
Length of Visible Light
Length of Day
Tomorrow will be .
, % of the Moon is Illuminated

Today's Extremes

State Highs State Lows

Community

WunderPhotos

Upload Photos

1,791,584 photos uploaded!

WunderBlogs® & News

Nearby

Air Quality

  Air Quality AQ Index Pollutant
Not available.

Snow Depth

Station Depth Elevation

Earthquake Activity

City Distance Mag. Time & Date
Minimum magnitude displayed is 2.5.

Coastal Water Temperatures

Place Temperature

Nearby Weather Stations